Stormwatcher's Retreat Logo




                  Temp     Hi    Low   Out    Dew  Wind  Wind   Wind    Hi    Hi   Wind   Heat    THW   THSW                Rain  Solar   Solar Hi Solar   UV    UV    Hi     Heat    Cool    In     In    In     In     In   In Air          Wind  Wind    ISS   Arc.
  Date    Time     Out   Temp   Temp   Hum    Pt. Speed   Dir    Run Speed   Dir  Chill  Index  Index  Index   Bar    Rain  Rate   Rad.  Energy    Rad.  Index  Dose   UV     D-D     D-D    Temp   Hum    Dew   Heat    EMC Density     ET   Samp   Tx   Recept  Int.
------------------------------------------------------------------------------------------------------------------------------------------------------------------------------------------------------------------------------------------------------------------------
11/17/17 12:10a   51.7   51.7   51.6    75   44.0  11.0   WSW   1.83  15.0   WSW   46.7   51.3   46.3   44.0  29.912  0.00  0.00     0     0.00      0     0.0  0.00   0.0   0.092   0.000   67.6    49   47.8   66.2   9.10  .0744    0.000   211    5    100.0   10 
11/17/17 12:20a   51.8   51.8   51.7    74   43.8  11.0     W   1.83  14.0     W   46.9   51.4   46.5   44.2  29.916  0.00  0.00     0     0.00      0     0.0  0.00   0.0   0.092   0.000   67.5    49   47.7   66.1   9.10  .0744    0.000   208    5    100.0   10 
11/17/17 12:30a   51.8   51.9   51.7    75   44.1  11.0     W   1.83  14.0     W   46.9   51.4   46.5   44.2  29.925  0.00  0.00     0     0.00      0     0.0  0.00   0.0   0.092   0.000   67.5    49   47.7   66.1   9.10  .0745    0.000   213    5    100.0   10 
11/17/17 12:40a   51.4   51.8   51.4    77   44.4  10.0   WNW   1.67  13.0     W   46.9   51.1   46.6   44.2  29.931  0.00  0.00     0     0.00      0     0.0  0.00   0.0   0.094   0.000   67.4    49   47.6   65.9   9.10  .0745    0.000   211    5    100.0   10 
11/17/17 12:50a   51.5   51.6   51.4    78   44.9   9.0     W   1.50  14.0     W   47.7   51.3   47.5   45.0  29.937  0.00  0.00     0     0.00      0     0.0  0.00   0.0   0.094   0.000   67.3    49   47.5   65.8   9.10  .0745    0.000   212    5    100.0   10 
11/17/17  1:00a   51.5   51.5   51.4    77   44.5   8.0     W   1.33  12.0     W   48.3   51.2   48.0   45.4  29.939  0.00  0.00     0     0.00      0     0.0  0.00   0.0   0.094   0.000   67.3    49   47.5   65.8   9.10  .0745    0.002   214    5    100.0   10 
11/17/17  1:10a   51.6   51.7   51.5    77   44.6   8.0     W   1.33  11.0     W   48.4   51.3   48.1   45.5  29.941  0.00  0.00     0     0.00      0     0.0  0.00   0.0   0.093   0.000   67.2    49   47.4   65.7   9.11  .0745    0.000   210    5    100.0   10 
11/17/17  1:20a   51.7   51.7   51.5    76   44.4   9.0   WSW   1.50  15.0    SW   47.9   51.4   47.6   45.1  29.939  0.00  0.00     0     0.00      0     0.0  0.00   0.0   0.092   0.000   67.1    49   47.3   65.6   9.11  .0746    0.000   212    5    100.0   10 
11/17/17  1:30a   51.7   51.7   51.6    75   44.0  10.0     W   1.67  14.0   WSW   47.3   51.3   46.9   44.5  29.943  0.00  0.00     0     0.00      0     0.0  0.00   0.0   0.092   0.000   67.1    49   47.3   65.6   9.11  .0746    0.000   212    5    100.0   10 
11/17/17  1:40a   51.8   51.8   51.6    75   44.1  11.0     W   1.83  14.0     W   46.9   51.4   46.5   44.2  29.948  0.00  0.00     0     0.00      0     0.0  0.00   0.0   0.092   0.000   67.0    49   47.2   65.5   9.11  .0746    0.000   212    5    100.0   10 
11/17/17  1:50a   51.8   51.9   51.7    76   44.5  10.0     W   1.67  13.0     W   47.4   51.5   47.1   44.7  29.954  0.00  0.00     0     0.00      0     0.0  0.00   0.0   0.092   0.000   67.0    49   47.2   65.5   9.11  .0746    0.000   210    5    100.0   10 
11/17/17  2:00a   51.8   51.9   51.7    74   43.8  11.0     W   1.83  17.0     W   46.9   51.4   46.5   44.2  29.960  0.00  0.00     0     0.00      0     0.0  0.00   0.0   0.092   0.000   66.9    49   47.1   65.4   9.11  .0746    0.002   213    5    100.0   10 
11/17/17  2:10a   51.9   51.9   51.7    74   43.9  12.0     W   2.00  16.0     W   46.5   51.5   46.1   43.9  29.965  0.00  0.00     0     0.00      0     0.0  0.00   0.0   0.091   0.000   66.9    49   47.1   65.4   9.11  .0747    0.000   211    5    100.0   10 
11/17/17  2:20a   51.7   51.8   51.7    73   43.3  11.0     W   1.83  15.0     W   46.7   51.3   46.3   44.0  29.971  0.00  0.00     0     0.00      0     0.0  0.00   0.0   0.092   0.000   66.8    49   47.0   65.3   9.11  .0747    0.000   209    5    100.0   10 
11/17/17  2:30a   51.7   51.8   51.7    73   43.3  12.0     W   2.00  16.0   WSW   46.2   51.3   45.8   43.6  29.977  0.00  0.00     0     0.00      0     0.0  0.00   0.0   0.092   0.000   66.8    49   47.0   65.3   9.11  .0747    0.000   212    5    100.0   10 
11/17/17  2:40a   51.6   51.8   51.6    74   43.6  11.0     W   1.83  15.0   WSW   46.6   51.2   46.2   43.9  29.983  0.00  0.00     0     0.00      0     0.0  0.00   0.0   0.093   0.000   66.7    49   46.9   65.1   9.12  .0747    0.000   213    5    100.0   10 
11/17/17  2:50a   51.7   51.8   51.6    76   44.4  10.0   WSW   1.67  14.0     W   47.3   51.4   47.0   44.6  29.989  0.00  0.00     0     0.00      0     0.0  0.00   0.0   0.092   0.000   66.7    49   46.9   65.1   9.12  .0748    0.000   212    5    100.0   10 
11/17/17  3:00a   51.7   51.8   51.7    76   44.4   9.0   WSW   1.50  13.0   WSW   47.9   51.4   47.6   45.1  29.994  0.00  0.00     0     0.00      0     0.0  0.00   0.0   0.092   0.000   66.6    49   46.8   65.0   9.12  .0748    0.002   214    5    100.0   10 
11/17/17  3:10a   51.7   51.8   51.7    76   44.4   9.0   WSW   1.50  15.0   WSW   47.9   51.4   47.6   45.1  29.995  0.00  0.00     0     0.00      0     0.0  0.00   0.0   0.092   0.000   66.5    49   46.7   64.9   9.12  .0748    0.000   213    5    100.0   10 
11/17/17  3:20a   51.8   51.9   51.7    76   44.5  12.0   WSW   2.00  17.0   WSW   46.4   51.5   46.1   43.9  29.996  0.00  0.00     0     0.00      0     0.0  0.00   0.0   0.092   0.000   66.5    49   46.7   64.9   9.12  .0748    0.000   210    5    100.0   10 
11/17/17  3:30a   51.9   51.9   51.8    75   44.2  12.0   WSW   2.00  17.0   WSW   46.5   51.5   46.1   43.9  30.002  0.00  0.00     0     0.00      0     0.0  0.00   0.0   0.091   0.000   66.4    49   46.7   64.8   9.12  .0748    0.000   212    5    100.0   10 
11/17/17  3:40a   51.9   51.9   51.8    74   43.9  13.0     W   2.17  18.0   WSW   46.1   51.5   45.7   43.6  30.008  0.00  0.00     0     0.00      0     0.0  0.00   0.0   0.091   0.000   66.4    49   46.7   64.8   9.12  .0749    0.000   211    5    100.0   10 
11/17/17  3:50a   51.5   52.0   51.5    77   44.5   9.0     W   1.50  17.0     W   47.7   51.2   47.4   44.9  30.012  0.00  0.00     0     0.00      0     0.0  0.00   0.0   0.094   0.000   66.4    49   46.7   64.8   9.12  .0749    0.000   210    5    100.0   10 
11/17/17  4:00a   51.3   51.5   51.2    78   44.7   7.0   WNW   1.17  11.0   WNW   48.8   51.1   48.6   45.9  30.018  0.00  0.00     0     0.00      0     0.0  0.00   0.0   0.095   0.000   66.3    49   46.6   64.7   9.12  .0749    0.002   212    5    100.0   10 
11/17/17  4:10a   51.3   51.5   51.3    77   44.3   7.0   WNW   1.17  11.0   WNW   48.8   51.1   48.6   45.9  30.022  0.00  0.00     0     0.00      0     0.0  0.00   0.0   0.095   0.000   66.2    49   46.5   64.5   9.13  .0749    0.000   210    5    100.0   10 
11/17/17  4:20a   51.7   51.7   51.3    75   44.0  10.0     W   1.67  14.0     W   47.3   51.3   46.9   44.5  30.026  0.00  0.00     0     0.00      0     0.0  0.00   0.0   0.092   0.000   66.2    49   46.5   64.5   9.13  .0749    0.000   212    5    100.0   10 
11/17/17  4:30a   51.8   51.9   51.7    74   43.8  10.0     W   1.67  14.0     W   47.4   51.4   47.0   44.6  30.031  0.00  0.00     0     0.00      0     0.0  0.00   0.0   0.092   0.000   66.2    49   46.5   64.5   9.13  .0749    0.000   212    5    100.0   10 
11/17/17  4:40a   51.9   51.9   51.7    73   43.5  11.0     W   1.83  15.0     W   47.0   51.4   46.5   44.2  30.037  0.00  0.00     0     0.00      0     0.0  0.00   0.0   0.091   0.000   66.1    49   46.4   64.4   9.13  .0750    0.000   211    5    100.0   10 
11/17/17  4:50a   51.8   51.9   51.8    73   43.4  11.0     W   1.83  15.0     W   46.9   51.3   46.4   44.1  30.042  0.00  0.00     0     0.00      0     0.0  0.00   0.0   0.092   0.000   66.0    49   46.3   64.3   9.13  .0750    0.000   211    5    100.0   10 
11/17/17  5:00a   51.8   51.9   51.7    73   43.4  11.0     W   1.83  14.0     W   46.9   51.3   46.4   44.1  30.045  0.00  0.00     0     0.00      0     0.0  0.00   0.0   0.092   0.000   66.0    49   46.3   64.3   9.13  .0750    0.002   211    5    100.0   10 
11/17/17  5:10a   51.6   51.9   51.6    70   42.1  10.0     W   1.67  13.0   WNW   47.2   51.0   46.6   44.1  30.052  0.00  0.00     0     0.00      0     0.0  0.00   0.0   0.093   0.000   66.0    49   46.3   64.3   9.13  .0750    0.000   212    5    100.0   10 
11/17/17  5:20a   51.6   51.7   51.5    71   42.5  10.0   WNW   1.67  14.0     W   47.2   51.1   46.7   44.2  30.055  0.00  0.00     0     0.00      0     0.0  0.00   0.0   0.093   0.000   65.9    49   46.2   64.2   9.13  .0751    0.000   212    5    100.0   10 
11/17/17  5:30a   51.7   51.8   51.6    73   43.3   9.0     W   1.50  13.0     W   47.9   51.3   47.5   45.0  30.059  0.00  0.00     0     0.00      0     0.0  0.00   0.0   0.092   0.000   65.9    49   46.2   64.2   9.13  .0751    0.000   211    5    100.0   10 
11/17/17  5:40a   51.7   51.8   51.6    72   43.0   9.0     W   1.50  13.0   WSW   47.9   51.2   47.4   44.8  30.065  0.00  0.00     0     0.00      0     0.0  0.00   0.0   0.092   0.000   65.8    49   46.1   64.1   9.13  .0751    0.000   212    5    100.0   10 
11/17/17  5:50a   51.8   51.8   51.6    71   42.7   9.0     W   1.50  11.0   WNW   48.0   51.3   47.5   44.9  30.070  0.00  0.00     0     0.00      0     0.0  0.00   0.0   0.092   0.000   65.8    49   46.1   64.1   9.13  .0751    0.000   212    5    100.0   10 
11/17/17  6:00a   51.8   51.9   51.8    72   43.1   8.0     W   1.33  11.0     W   48.7   51.3   48.2   45.6  30.071  0.00  0.00     0     0.00      0     0.0  0.00   0.0   0.092   0.000   65.7    49   46.0   64.0   9.14  .0751    0.002   208    5    100.0   10 
11/17/17  6:10a   52.0   52.0   51.8    70   42.5  10.0     W   1.67  13.0     W   47.6   51.4   47.0   44.5  30.077  0.00  0.00     0     0.00      0     0.0  0.00   0.0   0.090   0.000   65.7    49   46.0   64.0   9.14  .0751    0.000   212    5    100.0   10 
11/17/17  6:20a   51.9   52.0   51.8    72   43.2  11.0     W   1.83  16.0     W   47.0   51.4   46.5   44.2  30.081  0.00  0.00     0     0.00      0     0.0  0.00   0.0   0.091   0.000   65.7    49   46.0   64.0   9.14  .0752    0.000   213    5    100.0   10 
11/17/17  6:30a   51.9   51.9   51.8    74   43.9  11.0   WNW   1.83  14.0   WNW   47.0   51.5   46.6   44.3  30.085  0.00  0.00     0     0.00      0     0.0  0.00   0.0   0.091   0.000   65.6    49   45.9   63.9   9.14  .0752    0.000   210    5    100.0   10 
11/17/17  6:40a   51.8   51.8   51.7    74   43.8  10.0   WNW   1.67  13.0   WNW   47.4   51.4   47.0   44.6  30.093  0.00  0.00     0     0.00      0     0.0  0.00   0.0   0.092   0.000   65.6    49   45.9   63.9   9.14  .0752    0.000   213    5    100.0   10 
11/17/17  6:50a   51.6   51.8   51.5    75   43.9  10.0     W   1.67  14.0   WNW   47.2   51.2   46.8   44.4  30.100  0.00  0.00     0     0.00      0     0.0  0.00   0.0   0.093   0.000   65.6    49   45.9   63.9   9.14  .0752    0.000   210    5    100.0   10 
11/17/17  7:00a   51.4   51.6   51.4    73   43.0  10.0   WNW   1.67  13.0   WNW   46.9   51.0   46.5   44.1  30.106  0.00  0.00     0     0.00      0     0.0  0.00   0.0   0.094   0.000   65.9    50   46.7   64.3   9.33  .0752    0.002   210    5    100.0   10 
11/17/17  7:10a   51.4   51.5   51.4    74   43.4  10.0     W   1.67  14.0   WNW   46.9   51.0   46.5   44.1  30.111  0.00  0.00     0     0.00      0     0.0  0.00   0.0   0.094   0.000   66.1    50   46.9   64.5   9.33  .0751    0.000   211    5    100.0   10 
11/17/17  7:20a   51.4   51.5   51.3    74   43.4   9.0     W   1.50  12.0     W   47.5   51.0   47.1   44.6  30.118  0.00  0.00     2     0.03      5     0.0  0.00   0.0   0.094   0.000   66.4    50   47.2   64.9   9.32  .0751    0.000   211    5    100.0   10 
11/17/17  7:30a   51.3   51.4   51.3    75   43.6   8.0     W   1.33  12.0     W   48.1   51.0   47.8   45.3  30.124  0.00  0.00     8     0.11     11     0.0  0.00   0.0   0.095   0.000   66.5    50   47.3   65.0   9.32  .0751    0.000   212    5    100.0   10 
11/17/17  7:40a   51.2   51.3   51.2    76   43.9   5.0   WSW   0.83   8.0     W   49.6   50.9   49.3   46.9  30.129  0.00  0.00    14     0.20     16     0.0  0.00   0.0   0.096   0.000   66.7    50   47.5   65.2   9.32  .0751    0.000   210    5    100.0   10 
11/17/17  7:50a   48.8   51.2   48.8    75   41.2   2.0     S   0.33   7.0   WSW   48.8   48.5   48.5   46.1  30.137  0.00  0.00    18     0.26     21     0.0  0.00   0.0   0.113   0.000   66.8    50   47.6   65.4   9.31  .0751    0.000   212    5    100.0   10 
11/17/17  8:00a   47.9   48.8   47.9    78   41.4   1.0    SE   0.17   4.0     S   47.9   47.7   47.7   45.5  30.144  0.00  0.00    28     0.40     33     0.0  0.00   0.0   0.119   0.000   67.0    50   47.7   65.6   9.31  .0751    0.001   213    5    100.0   10 
11/17/17  8:10a   47.7   47.9   47.7    78   41.2   1.0   ESE   0.17   3.0   SSE   47.7   47.5   47.5   45.2  30.149  0.00  0.00    22     0.32     30     0.0  0.00   0.0   0.120   0.000   67.1    50   47.8   65.7   9.31  .0751    0.000   211    5    100.0   10 
11/17/17  8:20a   48.4   48.4   47.6    79   42.2   3.0     S   0.50   8.0     S   47.8   48.3   47.7   45.4  30.156  0.00  0.00    22     0.32     28     0.0  0.00   0.0   0.115   0.000   67.2    50   47.9   65.8   9.31  .0751    0.000   212    5    100.0   10 
11/17/17  8:30a   47.9   48.4   47.9    79   41.7   2.0     S   0.33   5.0   SSE   47.9   47.8   47.8   47.7  30.157  0.00  0.00    45     0.65     79     0.0  0.00   0.0   0.119   0.000   67.4    50   48.1   66.0   9.30  .0750    0.000   210    5    100.0   10 
11/17/17  8:40a   47.7   47.9   47.6    80   41.8   2.0   SSE   0.33   6.0   SSW   47.7   47.6   47.6   50.2  30.162  0.00  0.00   134     1.92    206     0.0  0.00   0.0   0.120   0.000   67.5    50   48.2   66.1   9.30  .0750    0.000   211    5    100.0   10 
11/17/17  8:50a   47.8   47.8   47.6    80   41.9   2.0    SE   0.33   6.0   ESE   47.8   47.7   47.7   49.9  30.171  0.00  0.00   103     1.48    142     0.0  0.00   0.0   0.119   0.000   67.5    50   48.2   66.1   9.30  .0751    0.000   210    5    100.0   10 
11/17/17  9:00a   48.2   48.3   47.8    80   42.3   1.0     S   0.17   3.0     S   48.2   48.1   48.1   49.8  30.174  0.00  0.00    90     1.29    105     0.0  0.00   0.0   0.117   0.000   67.5    50   48.2   66.1   9.30  .0751    0.002   213    5    100.0   10 
11/17/17  9:10a   48.1   48.2   48.1    80   42.2   1.0    SE   0.17   3.0   ESE   48.1   48.0   48.0   50.7  30.180  0.00  0.00   117     1.68    139     0.0  0.00   0.0   0.117   0.000   67.6    50   48.3   66.3   9.30  .0751    0.000   210    5    100.0   10 
11/17/17  9:20a   48.4   48.4   48.1    81   42.8   1.0    SE   0.17   3.0    SE   48.4   48.3   48.3   53.1  30.190  0.00  0.00   182     2.61    244     0.0  0.00   0.0   0.115   0.000   67.6    50   48.3   66.3   9.30  .0751    0.000   211    5    100.0   10 
11/17/17  9:30a   48.8   48.8   48.4    80   42.9   1.0    SE   0.17   4.0   SSE   48.8   48.7   48.7   51.4  30.192  0.00  0.00   122     1.75    218     0.0  0.00   0.0   0.113   0.000   67.7    50   48.4   66.4   9.30  .0751    0.000   211    5    100.0   10 
11/17/17  9:40a   49.2   49.2   48.8    80   43.3   0.0   SSE   0.00   2.0   SSE   49.2   49.1   49.1   51.9  30.195  0.00  0.00   127     1.82    148     0.0  0.00   0.0   0.110   0.000   67.7    50   48.4   66.4   9.30  .0751    0.000   212    5    100.0   10 
11/17/17  9:50a   49.3   49.4   49.2    80   43.4   1.0     S   0.17   5.0   SSE   49.3   49.2   49.2   51.1  30.201  0.00  0.00   105     1.51    139     0.0  0.00   0.0   0.109   0.000   67.8    50   48.5   66.5   9.29  .0751    0.000   211    5    100.0   10 
11/17/17 10:00a   49.5   49.6   49.3    80   43.6   2.0     S   0.33   9.0    SW   49.5   49.5   49.5   53.4  30.208  0.00  0.00   164     2.35    209     0.0  0.00   0.0   0.108   0.000   67.8    50   48.5   66.5   9.29  .0751    0.003   212    5    100.0   10 
11/17/17 10:10a   49.8   49.8   49.4    81   44.2   3.0     S   0.50   9.0   SSE   49.5   49.8   49.5   57.1  30.213  0.00  0.00   295     4.23    417     0.0  0.00   0.0   0.106   0.000   67.8    50   48.5   66.5   9.29  .0751    0.000   212    5    100.0   10 
11/17/17 10:20a   50.9   50.9   49.8    80   44.9   4.0     S   0.67   8.0     S   49.9   50.8   49.8   58.3  30.216  0.00  0.00   349     5.00    403     0.0  0.00   0.0   0.098   0.000   67.9    50   48.6   66.6   9.29  .0751    0.000   210    5    100.0   10 
11/17/17 10:30a   51.5   51.5   50.9    79   45.2   6.0     S   1.00  10.0     S   49.5   51.3   49.3   60.1  30.223  0.00  0.00   458     6.57    476     0.0  0.00   0.0   0.094   0.000   68.0    50   48.7   66.7   9.29  .0751    0.000   210    5    100.0   10 
11/17/17 10:40a   52.0   52.0   51.5    79   45.7   6.0     S   1.00   9.0   SSW   50.0   51.8   49.8   59.8  30.226  0.00  0.00   445     6.38    462     0.0  0.00   0.0   0.090   0.000   68.0    50   48.7   66.7   9.29  .0751    0.000   211    5    100.0   10 
11/17/17 10:50a   52.1   52.1   51.9    78   45.4   6.0     S   1.00   9.0     S   50.1   51.8   49.8   58.8  30.228  0.00  0.00   422     6.05    429     0.0  0.00   0.0   0.090   0.000   68.2    50   48.8   66.9   9.29  .0751    0.000   209    5    100.0   10 
11/17/17 11:00a   51.7   52.1   51.7    77   44.7   7.0   SSW   1.17  13.0   SSW   49.2   51.4   48.9   55.1  30.232  0.00  0.00   267     3.83    420     0.0  0.00   0.0   0.092   0.000   68.3    50   48.9   67.0   9.28  .0751    0.007   212    5    100.0   10 
11/17/17 11:10a   50.9   51.7   50.9    79   44.6  10.0   SSW   1.67  18.0     S   46.4   50.8   46.3   48.8  30.237  0.00  0.00   147     2.11    167     0.0  0.00   0.0   0.098   0.000   68.3    50   48.9   67.0   9.28  .0751    0.000   211    5    100.0   10 
11/17/17 11:20a   50.6   50.9   50.5    79   44.3   9.0   SSW   1.50  14.0   SSW   46.6   50.5   46.5   49.5  30.238  0.00  0.00   166     2.38    432     0.0  0.00   0.0   0.100   0.000   68.4    50   49.0   67.1   9.28  .0751    0.000   212    5    100.0   10 
11/17/17 11:30a   51.4   51.4   50.6    79   45.1   7.0     S   1.17  12.0   SSE   48.9   51.2   48.7   57.9  30.241  0.00  0.00   424     6.08    431     0.0  0.00   0.0   0.094   0.000   68.4    50   49.0   67.1   9.28  .0751    0.000   213    5    100.0   10 
11/17/17 11:40a   51.8   51.8   51.4    79   45.5   8.0     S   1.33  13.0   SSW   48.7   51.6   48.5   57.0  30.240  0.00  0.00   404     5.79    420     0.0  0.00   0.0   0.092   0.000   68.5    50   49.1   67.1   9.28  .0751    0.000   212    5    100.0   10 
11/17/17 11:50a   51.8   51.9   51.8    77   44.8   7.0     S   1.17  12.0   SSW   49.4   51.5   49.1   57.5  30.243  0.00  0.00   382     5.48    427     0.0  0.00   0.0   0.092   0.000   68.6    50   49.2   67.2   9.28  .0750    0.000   212    5    100.0   10 
11/17/17 12:00p   51.8   51.8   51.7    77   44.8   8.0   SSW   1.33  13.0   SSW   48.7   51.5   48.4   54.3  30.245  0.00  0.00   278     3.99    450     0.0  0.00   0.0   0.092   0.000   68.6    50   49.2   67.2   9.28  .0751    0.007   210    5    100.0   10 
11/17/17 12:10p   51.9   51.9   51.8    77   44.9   9.0     S   1.50  13.0     S   48.1   51.6   47.8   56.4  30.245  0.00  0.00   443     6.35    459     0.0  0.00   0.0   0.091   0.000   68.7    50   49.3   67.3   9.28  .0750    0.000   212    5    100.0   10 
11/17/17 12:20p   52.2   52.2   51.9    77   45.2   9.0   SSW   1.50  13.0   SSW   48.4   51.9   48.1   56.6  30.245  0.00  0.00   433     6.21    464     0.0  0.00   0.0   0.089   0.000   68.8    50   49.4   67.4   9.27  .0750    0.000   213    5    100.0   10 
11/17/17 12:30p   52.0   52.2   52.0    77   45.0   9.0     S   1.50  16.0   SSW   48.2   51.7   47.9   52.5  30.246  0.00  0.00   231     3.31    497     0.0  0.00   0.0   0.090   0.000   68.8    50   49.4   67.4   9.27  .0750    0.000   211    5    100.0   10 
11/17/17 12:40p   51.7   52.1   51.7    77   44.7   9.0   SSW   1.50  12.0   SSW   47.9   51.4   47.6   50.5  30.252  0.00  0.00   170     2.44    190     0.0  0.00   0.0   0.092   0.000   68.9    50   49.5   67.5   9.27  .0750    0.000   212    5    100.0   10 
11/17/17 12:50p   51.3   51.7   51.3    79   45.0  10.0   SSW   1.67  16.0     S   46.8   51.1   46.6   48.7  30.254  0.00  0.00   140     2.01    181     0.0  0.00   0.0   0.095   0.000   68.9    50   49.5   67.5   9.27  .0750    0.000   212    5    100.0   10 
11/17/17  1:00p   51.2   51.3   51.0    81   45.6  10.0   SSW   1.67  15.0     S   46.7   51.1   46.6   46.9  30.255  0.00  0.00    77     1.10    125     0.0  0.00   0.0   0.096   0.000   69.0    50   49.6   67.6   9.27  .0750    0.006   211    5    100.0   10 
11/17/17  1:10p   50.5   51.2   50.5    81   44.9   9.0     S   1.50  14.0   SSW   46.5   50.5   46.5   46.0  30.263  0.00  0.00    49     0.70     54     0.0  0.00   0.0   0.101   0.000   68.9    50   49.5   67.5   9.27  .0750    0.000   212    5    100.0   10 
11/17/17  1:20p   50.1   50.5   50.1    81   44.5   4.0     S   0.67  11.0   SSW   49.0   50.1   49.0   48.9  30.263  0.00  0.00    64     0.92     84     0.0  0.00   0.0   0.103   0.000   68.9    50   49.5   67.5   9.27  .0750    0.000   212    5    100.0   10 
11/17/17  1:30p   50.4   50.4   50.0    82   45.1   1.0     S   0.17   5.0     S   50.4   50.4   50.4   51.7  30.260  0.03  0.19   102     1.46    179     0.0  0.00   0.0   0.101   0.000   68.9    50   49.5   67.5   9.27  .0750    0.000   212    5    100.0   10 
11/17/17  1:40p   51.6   51.6   50.4    84   46.9   3.0     S   0.50  12.0   SSW   51.5   51.6   51.5   59.8  30.259  0.00  0.05   353     5.06    439     0.0  0.00   0.0   0.093   0.000   69.0    50   49.6   67.6   9.27  .0750    0.000   212    5    100.0   10 
11/17/17  1:50p   51.9   51.9   51.6    83   46.9   9.0     S   1.50  15.0   SSE   48.1   51.8   48.0   53.2  30.261  0.00  0.00   244     3.50    306     0.0  0.00   0.0   0.091   0.000   69.0    50   49.6   67.6   9.27  .0750    0.000   210    5    100.0   10 
11/17/17  2:00p   52.9   52.9   51.9    82   47.6  10.0     S   1.67  15.0   SSE   48.7   52.7   48.5   59.0  30.261  0.00  0.00   536     7.68    568     0.0  0.00   0.0   0.084   0.000   69.0    50   49.6   67.6   9.27  .0750    0.005   211    5    100.0   10 
11/17/17  2:10p   53.0   53.2   52.9    82   47.7  10.0   SSW   1.67  15.0     S   48.8   52.8   48.6   58.7  30.265  0.00  0.00   510     7.31    591     0.0  0.00   0.0   0.083   0.000   69.1    50   49.7   67.7   9.27  .0750    0.000   212    5    100.0   10 
11/17/17  2:20p   52.5   53.1   52.5    84   47.8  12.0   SSW   2.00  21.0     S   47.2   52.4   47.1   53.7  30.268  0.00  0.00   329     4.72    480     0.0  0.00   0.0   0.087   0.000   69.2    50   49.8   67.7   9.27  .0750    0.000   212    5    100.0   10 
11/17/17  2:30p   53.0   53.0   52.4    84   48.3  10.0     S   1.67  15.0   SSE   48.8   52.9   48.7   56.4  30.273  0.00  0.00   393     5.63    496     0.0  0.00   0.0   0.083   0.000   69.3    50   49.9   67.8   9.26  .0750    0.000   212    5    100.0   10 
11/17/17  2:40p   53.2   53.2   53.1    84   48.5  10.0   SSW   1.67  17.0     S   49.0   53.1   48.9   56.1  30.280  0.00  0.00   324     4.64    436     0.0  0.00   0.0   0.082   0.000   69.4    50   49.9   67.9   9.26  .0750    0.000   214    5    100.0   10 
11/17/17  2:50p   52.7   53.2   52.7    85   48.3  11.0   SSW   1.83  15.0   SSW   47.9   52.6   47.8   53.7  30.282  0.00  0.00   268     3.84    334     0.0  0.00   0.0   0.085   0.000   69.4    50   49.9   67.9   9.26  .0750    0.000   211    5    100.0   10 
11/17/17  3:00p   52.8   52.8   52.5    85   48.4   9.0   SSW   1.50  15.0   SSW   49.2   52.7   49.1   55.2  30.285  0.00  0.00   250     3.58    366     0.0  0.00   0.0   0.085   0.000   69.5    50   50.0   67.9   9.26  .0750    0.008   211    5    100.0   10 
11/17/17  3:10p   52.6   53.0   52.6    85   48.2  12.0   SSW   2.00  16.0     S   47.3   52.5   47.2   52.6  30.288  0.00  0.00   242     3.47    374     0.0  0.00   0.0   0.086   0.000   69.5    50   50.0   67.9   9.26  .0750    0.000   214    5    100.0   10 
11/17/17  3:20p   52.6   52.6   52.4    86   48.5  11.0   SSW   1.83  18.0     S   47.8   52.6   47.8   51.4  30.292  0.00  0.00   162     2.32    257     0.0  0.00   0.0   0.086   0.000   69.5    50   50.0   67.9   9.26  .0750    0.000   213    5    100.0   10 
11/17/17  3:30p   52.5   52.7   52.5    85   48.1  10.0   SSW   1.67  16.0     S   48.2   52.5   48.2   52.0  30.295  0.00  0.00   160     2.29    216     0.0  0.00   0.0   0.087   0.000   69.6    50   50.1   68.0   9.26  .0750    0.000   213    5    100.0   10 
11/17/17  3:40p   53.2   53.2   52.5    83   48.2   9.0   SSW   1.50  14.0   SSE   49.6   53.0   49.4   53.6  30.297  0.00  0.00   169     2.42    183     0.0  0.00   0.0   0.082   0.000   69.6    50   50.1   68.0   9.26  .0750    0.000   213    5    100.0   10 
11/17/17  3:50p   53.0   53.3   53.0    82   47.7   8.0   SSW   1.33  12.0     S   50.1   52.8   49.9   52.5  30.297  0.00  0.00   112     1.61    144     0.0  0.00   0.0   0.083   0.000   69.6    50   50.1   68.0   9.26  .0750    0.000   211    5    100.0   10 
11/17/17  4:00p   52.8   53.0   52.8    83   47.8   9.0   SSW   1.50  12.0   SSW   49.2   52.6   49.0   50.3  30.300  0.00  0.00    79     1.13     90     0.0  0.00   0.0   0.085   0.000   69.6    50   50.1   68.0   9.26  .0750    0.004   211    5    100.0   10 
11/17/17  4:10p   52.6   52.9   52.6    83   47.6   8.0   SSW   1.33  11.0   SSW   49.6   52.5   49.5   49.6  30.303  0.00  0.00    47     0.67     62     0.0  0.00   0.0   0.086   0.000   69.7    50   50.2   68.1   9.26  .0750    0.000   213    5    100.0   10 
11/17/17  4:20p   52.5   52.6   52.5    83   47.5   8.0   SSW   1.33  13.0     S   49.5   52.4   49.4   48.5  30.307  0.00  0.00    25     0.36     35     0.0  0.00   0.0   0.087   0.000   69.7    50   50.2   68.1   9.26  .0750    0.000   212    5    100.0   10 
11/17/17  4:30p   52.5   52.7   52.5    85   48.1  10.0   SSW   1.67  16.0   SSE   48.2   52.5   48.2   47.9  30.305  0.00  0.00    37     0.53     53     0.0  0.00   0.0   0.087   0.000   69.7    50   50.2   68.1   9.26  .0750    0.000   211    5    100.0   10 
11/17/17  4:40p   52.4   52.5   52.2    84   47.7   9.0   SSW   1.50  14.0   WSW   48.7   52.3   48.6   46.5  30.312  0.00  0.00    17     0.24     23     0.0  0.00   0.0   0.087   0.000   69.7    50   50.2   68.1   9.26  .0750    0.000   213    5    100.0   10 
11/17/17  4:50p   52.3   52.4   52.3    84   47.6   8.0   SSW   1.33  13.0     S   49.3   52.2   49.2   46.8  30.314  0.00  0.00     7     0.10     12     0.0  0.00   0.0   0.088   0.000   69.7    50   50.2   68.1   9.26  .0750    0.000   212    5    100.0   10 
11/17/17  5:00p   52.1   52.3   52.1    84   47.4   8.0   SSW   1.33  11.0     S   49.0   52.0   48.9   46.3  30.315  0.00  0.00     0     0.00      0     0.0  0.00   0.0   0.090   0.000   69.8    50   50.3   68.2   9.25  .0750    0.001   213    5    100.0   10 
11/17/17  5:10p   52.1   52.1   52.1    83   47.1   9.0   SSW   1.50  12.0     S   48.3   52.0   48.2   45.7  30.315  0.00  0.00     0     0.00      0     0.0  0.00   0.0   0.090   0.000   69.7    50   50.2   68.1   9.26  .0750    0.000   212    5    100.0   10 
11/17/17  5:20p   52.0   52.1   52.0    82   46.7   9.0   SSW   1.50  14.0   SSE   48.2   51.9   48.1   45.6  30.317  0.00  0.00     0     0.00      0     0.0  0.00   0.0   0.090   0.000   69.7    50   50.2   68.1   9.26  .0750    0.000   209    5    100.0   10 
11/17/17  5:30p   51.9   52.1   51.8    82   46.6   7.0   SSW   1.17  12.0   SSE   49.5   51.8   49.4   46.7  30.323  0.00  0.00     0     0.00      0     0.0  0.00   0.0   0.091   0.000   69.7    50   50.2   68.1   9.26  .0751    0.000   211    5    100.0   10 
11/17/17  5:40p   51.3   51.9   51.3    83   46.3   2.0     S   0.33   6.0   SSW   51.3   51.2   51.2   48.5  30.327  0.00  0.00     0     0.00      0     0.0  0.00   0.0   0.095   0.000   69.7    50   50.2   68.1   9.26  .0751    0.000   213    5    100.0   10 
11/17/17  5:50p   50.6   51.3   50.6    83   45.6   1.0     S   0.17   5.0     S   50.6   50.6   50.6   47.8  30.329  0.00  0.00     0     0.00      0     0.0  0.00   0.0   0.100   0.000   69.6    50   50.1   68.0   9.26  .0751    0.000   211    5    100.0   10 
11/17/17  6:00p   50.2   50.6   50.2    84   45.6   1.0   SSE   0.17   6.0   SSE   50.2   50.3   50.3   47.5  30.329  0.00  0.00     0     0.00      0     0.0  0.00   0.0   0.103   0.000   69.6    50   50.1   68.0   9.26  .0751    0.001   212    5    100.0   10 
11/17/17  6:10p   49.7   50.1   49.7    84   45.1   1.0    SE   0.17   6.0   SSW   49.7   49.8   49.8   47.0  30.332  0.00  0.00     0     0.00      0     0.0  0.00   0.0   0.106   0.000   69.6    50   50.1   68.0   9.26  .0751    0.000   213    5    100.0   10 
11/17/17  6:20p   49.3   49.7   49.3    84   44.7   1.0     E   0.17   4.0    SE   49.3   49.4   49.4   46.6  30.336  0.00  0.00     0     0.00      0     0.0  0.00   0.0   0.109   0.000   69.6    50   50.1   68.0   9.26  .0751    0.000   211    5    100.0   10 
11/17/17  6:30p   49.2   49.3   49.2    84   44.6   2.0    SE   0.33   6.0   SSE   49.2   49.3   49.3   46.5  30.337  0.00  0.00     0     0.00      0     0.0  0.00   0.0   0.110   0.000   69.6    50   50.1   68.0   9.26  .0751    0.000   210    5    100.0   10 
11/17/17  6:40p   49.0   49.2   49.0    84   44.4   1.0   ESE   0.17   4.0    SE   49.0   49.1   49.1   46.3  30.336  0.00  0.00     0     0.00      0     0.0  0.00   0.0   0.111   0.000   69.6    50   50.1   68.0   9.26  .0751    0.000   212    5    100.0   10 
11/17/17  6:50p   48.7   49.0   48.7    85   44.4   1.0    SE   0.17   2.0     S   48.7   48.8   48.8   46.0  30.339  0.00  0.00     0     0.00      0     0.0  0.00   0.0   0.113   0.000   69.5    50   50.0   67.9   9.26  .0751    0.000   212    5    100.0   10 
11/17/17  7:00p   48.5   48.7   48.5    85   44.2   0.0   ESE   0.00   2.0    SE   48.5   48.5   48.5   45.7  30.343  0.00  0.00     0     0.00      0     0.0  0.00   0.0   0.115   0.000   69.5    50   50.0   67.9   9.26  .0751    0.000   210    5    100.0   10 
11/17/17  7:10p   48.5   48.5   48.4    86   44.5   1.0     S   0.17   5.0     S   48.5   48.6   48.6   45.8  30.344  0.00  0.00     0     0.00      0     0.0  0.00   0.0   0.115   0.000   69.5    50   50.0   67.9   9.26  .0751    0.000   213    5    100.0   10 
11/17/17  7:20p   48.3   48.5   48.3    86   44.3   0.0    SE   0.00   2.0   ESE   48.3   48.4   48.4   45.6  30.342  0.00  0.00     0     0.00      0     0.0  0.00   0.0   0.116   0.000   69.5    50   50.0   67.9   9.26  .0751    0.000   211    5    100.0   10 
11/17/17  7:30p   48.0   48.3   48.0    86   44.0   0.0   ESE   0.00   2.0    SE   48.0   48.0   48.0   45.2  30.340  0.00  0.00     0     0.00      0     0.0  0.00   0.0   0.118   0.000   69.5    50   50.0   67.9   9.26  .0751    0.000   211    5    100.0   10 
11/17/17  7:40p   47.7   48.0   47.7    86   43.7   1.0     E   0.17   6.0     E   47.7   47.7   47.7   44.8  30.342  0.00  0.00     0     0.00      0     0.0  0.00   0.0   0.120   0.000   69.5    50   50.0   67.9   9.26  .0751    0.000   211    5    100.0   10 
11/17/17  7:50p   47.5   47.7   47.4    87   43.8   1.0     E   0.17   6.0     E   47.5   47.6   47.6   44.7  30.341  0.00  0.00     0     0.00      0     0.0  0.00   0.0   0.122   0.000   69.4    50   49.9   67.9   9.26  .0752    0.000   211    5    100.0   10 
11/17/17  8:00p   47.9   48.0   47.4    88   44.5   1.0   ESE   0.17   4.0   SSE   47.9   48.0   48.0   45.2  30.345  0.00  0.00     0     0.00      0     0.0  0.00   0.0   0.119   0.000   69.4    50   49.9   67.9   9.26  .0752    0.000   208    5    100.0   10 
11/17/17  8:10p   48.3   48.3   47.9    88   44.9   1.0   SSE   0.17   5.0   SSE   48.3   48.4   48.4   45.6  30.344  0.00  0.00     0     0.00      0     0.0  0.00   0.0   0.116   0.000   69.4    50   49.9   67.9   9.26  .0752    0.000   214    5    100.0   10 
11/17/17  8:20p   48.4   48.4   48.3    87   44.7   1.0   ESE   0.17   6.0   SSE   48.4   48.5   48.5   45.7  30.346  0.00  0.00     0     0.00      0     0.0  0.00   0.0   0.115   0.000   69.4    50   49.9   67.9   9.26  .0752    0.000   212    5    100.0   10 
11/17/17  8:30p   48.3   48.4   48.3    87   44.6   1.0   ESE   0.17   4.0   ESE   48.3   48.4   48.4   45.6  30.349  0.00  0.00     0     0.00      0     0.0  0.00   0.0   0.116   0.000   69.4    50   49.9   67.9   9.26  .0752    0.000   212    5    100.0   10 
11/17/17  8:40p   48.2   48.3   48.1    88   44.8   1.0   ESE   0.17   4.0    SE   48.2   48.3   48.3   45.5  30.352  0.00  0.00     0     0.00      0     0.0  0.00   0.0   0.117   0.000   69.3    50   49.9   67.8   9.26  .0752    0.000   211    5    100.0   10 
11/17/17  8:50p   48.1   48.2   48.1    88   44.7   1.0   ESE   0.17   4.0     E   48.1   48.2   48.2   45.4  30.352  0.00  0.00     0     0.00      0     0.0  0.00   0.0   0.117   0.000   69.3    50   49.9   67.8   9.26  .0752    0.000   208    5    100.0   10 
11/17/17  9:00p   47.8   48.1   47.8    87   44.1   1.0   ESE   0.17   4.0    SE   47.8   47.9   47.9   45.1  30.352  0.00  0.00     0     0.00      0     0.0  0.00   0.0   0.119   0.000   69.2    50   49.8   67.7   9.27  .0752    0.000   212    5    100.0   10 
11/17/17  9:10p   47.4   47.8   47.4    87   43.7   2.0   ESE   0.33   7.0     E   47.4   47.5   47.5   44.6  30.352  0.00  0.00     0     0.00      0     0.0  0.00   0.0   0.122   0.000   69.2    50   49.8   67.7   9.27  .0752    0.000   212    5    100.0   10 
11/17/17  9:20p   47.0   47.4   47.0    87   43.3   2.0   ESE   0.33   7.0   ESE   47.0   47.1   47.1   44.2  30.351  0.00  0.00     0     0.00      0     0.0  0.00   0.0   0.125   0.000   69.2    50   49.8   67.7   9.27  .0752    0.000   208    5    100.0   10 
11/17/17  9:30p   46.8   47.0   46.8    87   43.1   1.0     E   0.17   6.0     S   46.8   46.9   46.9   44.0  30.351  0.00  0.00     0     0.00      0     0.0  0.00   0.0   0.126   0.000   69.2    50   49.8   67.7   9.27  .0752    0.000   212    5    100.0   10 
11/17/17  9:40p   46.7   46.8   46.7    88   43.3   2.0   ESE   0.33   9.0     E   46.7   46.8   46.8   43.9  30.352  0.00  0.00     0     0.00      0     0.0  0.00   0.0   0.127   0.000   69.1    50   49.7   67.7   9.27  .0752    0.000   213    5    100.0   10 
11/17/17  9:50p   46.5   46.7   46.5    87   42.8   2.0   ESE   0.33   5.0    SE   46.5   46.6   46.6   43.7  30.353  0.00  0.00     0     0.00      0     0.0  0.00   0.0   0.128   0.000   69.1    50   49.7   67.7   9.27  .0752    0.000   212    5    100.0   10 
11/17/17 10:00p   46.5   46.5   46.5    88   43.1   1.0   ESE   0.17   4.0   ENE   46.5   46.6   46.6   43.7  30.352  0.00  0.00     0     0.00      0     0.0  0.00   0.0   0.128   0.000   69.0    50   49.6   67.6   9.27  .0753    0.000   209    5    100.0   10 
11/17/17 10:10p   46.3   46.5   46.3    88   42.9   2.0   ESE   0.33   7.0   ESE   46.3   46.4   46.4   43.5  30.350  0.00  0.00     0     0.00      0     0.0  0.00   0.0   0.130   0.000   69.0    50   49.6   67.6   9.27  .0752    0.000   213    5    100.0   10 
11/17/17 10:20p   45.9   46.3   45.9    88   42.5   3.0     E   0.50   7.0    SE   45.1   46.0   45.2   42.3  30.352  0.00  0.00     0     0.00      0     0.0  0.00   0.0   0.133   0.000   69.0    50   49.6   67.6   9.27  .0753    0.000   210    5    100.0   10 
11/17/17 10:30p   45.4   46.0   45.4    87   41.8   3.0   ESE   0.50   7.0     E   44.5   45.4   44.5   41.6  30.353  0.00  0.00     0     0.00      0     0.0  0.00   0.0   0.136   0.000   69.0    50   49.6   67.6   9.27  .0753    0.000   210    5    100.0   10 
11/17/17 10:40p   44.7   45.4   44.7    88   41.4   4.0   ESE   0.67  10.0   ESE   42.7   44.7   42.7   39.8  30.354  0.00  0.00     0     0.00      0     0.0  0.00   0.0   0.141   0.000   68.9    49   48.9   67.4   9.07  .0753    0.000   208    5    100.0   10 
11/17/17 10:50p   44.3   44.7   44.3    89   41.3   4.0   ESE   0.67   9.0    SE   42.3   44.4   42.4   39.5  30.353  0.00  0.00     0     0.00      0     0.0  0.00   0.0   0.144   0.000   68.9    49   48.9   67.4   9.07  .0753    0.000   209    5    100.0   10 
11/17/17 11:00p   44.1   44.3   44.1    89   41.1   5.0     E   0.83  10.0   ENE   41.3   44.2   41.4   38.5  30.352  0.00  0.00     0     0.00      0     0.0  0.00   0.0   0.145   0.000   68.8    49   48.9   67.3   9.07  .0753    0.000   212    5    100.0   10 
11/17/17 11:10p   43.8   44.1   43.8    90   41.1   5.0   ESE   0.83  11.0   ESE   41.0   43.9   41.1   38.2  30.353  0.00  0.00     0     0.00      0     0.0  0.00   0.0   0.147   0.000   68.8    49   48.9   67.3   9.07  .0753    0.000   213    5    100.0   10 
11/17/17 11:20p   43.6   43.8   43.6    90   40.9   5.0     E   0.83  10.0     E   40.7   43.7   40.8   37.8  30.355  0.00  0.00     0     0.00      0     0.0  0.00   0.0   0.149   0.000   68.8    49   48.9   67.3   9.07  .0753    0.000   210    5    100.0   10 
11/17/17 11:30p   43.5   43.6   43.5    90   40.8   5.0     E   0.83  10.0   ESE   40.6   43.5   40.6   37.6  30.353  0.00  0.00     0     0.00      0     0.0  0.00   0.0   0.149   0.000   68.7    49   48.8   67.2   9.08  .0753    0.000   212    5    100.0   10 
11/17/17 11:40p   43.4   43.5   43.4    91   40.9   6.0     E   1.00  14.0     E   39.8   43.5   39.9   36.9  30.351  0.00  0.00     0     0.00      0     0.0  0.00   0.0   0.150   0.000   68.6    49   48.7   67.1   9.08  .0753    0.000   210    5    100.0   10 
11/17/17 11:50p   43.4   43.4   43.3    91   40.9   6.0     E   1.00  15.0     E   39.8   43.5   39.9   36.9  30.354  0.00  0.00     0     0.00      0     0.0  0.00   0.0   0.150   0.000   68.6    49   48.7   67.1   9.08  .0753    0.000   211    5    100.0   10 
11/18/17 12:00a   43.3   43.4   43.3    91   40.8   6.0     E   1.00  14.0   ENE   39.7   43.3   39.7   36.7  30.351  0.00  0.00     0     0.00      0     0.0  0.00   0.0   0.151   0.000   68.5    49   48.6   67.1   9.08  .0754    0.000   213    5    100.0   10 
11/18/17 12:10a   43.2   43.3   43.2    92   41.0   6.0     E   1.00  15.0   ESE   39.5   43.3   39.6   36.7  30.351  0.00  0.00     0     0.00      0     0.0  0.00   0.0   0.151   0.000   68.5    49   48.6   67.1   9.08  .0754    0.000   209    5    100.0   10 
11/18/17 12:20a   43.1   43.2   43.1    92   40.9   6.0     E   1.00  12.0   ESE   39.4   43.1   39.4   36.4  30.350  0.00  0.00     0     0.00      0     0.0  0.00   0.0   0.152   0.000   68.5    49   48.6   67.1   9.08  .0754    0.000   212    5    100.0   10 
11/18/17 12:30a   42.9   43.1   42.9    92   40.7   6.0     E   1.00  11.0     E   39.2   42.9   39.2   36.2  30.349  0.00  0.00     0     0.00      0     0.0  0.00   0.0   0.153   0.000   68.4    49   48.5   67.0   9.08  .0754    0.000   210    5    100.0   10 
11/18/17 12:40a   42.9   43.0   42.9    92   40.7   6.0     E   1.00  12.0     E   39.2   42.9   39.2   36.2  30.348  0.00  0.00     0     0.00      0     0.0  0.00   0.0   0.153   0.000   68.4    49   48.5   67.0   9.08  .0754    0.000   210    5    100.0   10 
11/18/17 12:50a   42.8   42.9   42.8    92   40.6   6.0     E   1.00  15.0     E   39.1   42.8   39.1   36.1  30.346  0.00  0.00     0     0.00      0     0.0  0.00   0.0   0.154   0.000   68.3    49   48.4   66.9   9.08  .0754    0.000   210    5    100.0   10 
11/18/17  1:00a   42.8   42.8   42.7    92   40.6   6.0     E   1.00  11.0     E   39.1   42.8   39.1   36.1  30.343  0.00  0.00     0     0.00      0     0.0  0.00   0.0   0.154   0.000   68.3    49   48.4   66.9   9.08  .0754    0.000   210    5    100.0   10 
11/18/17  1:10a   42.6   42.8   42.6    92   40.4   6.0     E   1.00  12.0    NE   38.8   42.6   38.8   35.8  30.340  0.00  0.00     0     0.00      0     0.0  0.00   0.0   0.156   0.000   68.3    49   48.4   66.9   9.08  .0754    0.000   212    5    100.0   10 
11/18/17  1:20a   42.5   42.7   42.5    92   40.3   6.0     E   1.00  15.0     E   38.7   42.5   38.7   35.7  30.336  0.00  0.00     0     0.00      0     0.0  0.00   0.0   0.156   0.000   68.3    49   48.4   66.9   9.08  .0754    0.000   213    5    100.0   10 
11/18/17  1:30a   42.4   42.5   42.4    93   40.5   6.0     E   1.00  15.0    NE   38.6   42.5   38.7   35.7  30.338  0.00  0.00     0     0.00      0     0.0  0.00   0.0   0.157   0.000   68.3    49   48.4   66.9   9.08  .0754    0.000   213    5    100.0   10 
11/18/17  1:40a   42.4   42.4   42.3    93   40.5   6.0     E   1.00  14.0   ENE   38.6   42.5   38.7   35.7  30.332  0.00  0.00     0     0.00      0     0.0  0.00   0.0   0.157   0.000   68.3    49   48.4   66.9   9.08  .0753    0.000   210    5    100.0   10 
11/18/17  1:50a   42.3   42.4   42.3    93   40.4   6.0     E   1.00  11.0   SSE   38.5   42.4   38.6   35.6  30.334  0.00  0.00     0     0.00      0     0.0  0.00   0.0   0.158   0.000   68.3    49   48.4   66.9   9.08  .0753    0.000   211    5    100.0   10 
11/18/17  2:00a   42.3   42.3   42.3    93   40.4   6.0   ESE   1.00  13.0   ESE   38.5   42.4   38.6   35.6  30.332  0.00  0.00     0     0.00      0     0.0  0.00   0.0   0.158   0.000   68.3    49   48.4   66.9   9.08  .0753    0.000   213    5    100.0   10 
11/18/17  2:10a   42.2   42.3   42.2    93   40.3   6.0   ESE   1.00  12.0     E   38.3   42.3   38.4   35.4  30.333  0.00  0.00     0     0.00      0     0.0  0.00   0.0   0.158   0.000   68.3    49   48.4   66.9   9.08  .0753    0.000   211    5    100.0   10 
11/18/17  2:20a   42.2   42.2   42.2    93   40.3   6.0   ESE   1.00  11.0     E   38.3   42.3   38.4   35.4  30.333  0.00  0.00     0     0.00      0     0.0  0.00   0.0   0.158   0.000   68.3    49   48.4   66.9   9.08  .0753    0.000   211    5    100.0   10 
11/18/17  2:30a   42.0   42.2   42.0    93   40.1   6.0   ESE   1.00  14.0     E   38.1   42.1   38.2   35.2  30.331  0.00  0.00     0     0.00      0     0.0  0.00   0.0   0.160   0.000   68.2    49   48.3   66.8   9.09  .0754    0.000   213    5    100.0   10 
11/18/17  2:40a   42.0   42.0   42.0    93   40.1   5.0   ESE   0.83  12.0   NNE   38.8   42.1   38.9   35.9  30.329  0.00  0.00     0     0.00      0     0.0  0.00   0.0   0.160   0.000   68.1    49   48.2   66.7   9.09  .0754    0.000   210    5    100.0   10 
11/18/17  2:50a   41.8   42.0   41.8    93   39.9   5.0     E   0.83  10.0    SE   38.6   41.9   38.7   35.7  30.326  0.00  0.00     0     0.00      0     0.0  0.00   0.0   0.161   0.000   68.1    49   48.2   66.7   9.09  .0754    0.000   210    5    100.0   10 
11/18/17  3:00a   41.8   41.8   41.8    93   39.9   5.0   ESE   0.83  14.0    SE   38.6   41.9   38.7   35.7  30.324  0.00  0.00     0     0.00      0     0.0  0.00   0.0   0.161   0.000   68.1    49   48.2   66.7   9.09  .0754    0.000   211    5    100.0   10 
11/18/17  3:10a   41.7   41.8   41.6    93   39.8   6.0     E   1.00  12.0   ESE   37.7   41.7   37.7   34.7  30.317  0.00  0.00     0     0.00      0     0.0  0.00   0.0   0.162   0.000   68.0    49   48.1   66.6   9.09  .0754    0.000   209    5    100.0   10 
11/18/17  3:20a   41.6   41.7   41.6    94   40.0   7.0     E   1.17  14.0   ESE   37.0   41.7   37.1   34.1  30.314  0.00  0.00     0     0.00      0     0.0  0.00   0.0   0.163   0.000   68.0    49   48.1   66.6   9.09  .0753    0.000   212    5    100.0   10 
11/18/17  3:30a   41.5   41.6   41.5    94   39.9   6.0     E   1.00  12.0     E   37.5   41.6   37.6   34.6  30.309  0.00  0.00     0     0.00      0     0.0  0.00   0.0   0.163   0.000   68.0    49   48.1   66.6   9.09  .0753    0.000   213    5    100.0   10 
11/18/17  3:40a   41.5   41.5   41.5    94   39.9   7.0     E   1.17  14.0   SSE   36.9   41.6   37.0   34.0  30.302  0.00  0.00     0     0.00      0     0.0  0.00   0.0   0.163   0.000   67.9    49   48.0   66.5   9.09  .0753    0.000   213    5    100.0   10 
11/18/17  3:50a   41.4   41.5   41.4    94   39.8   7.0     E   1.17  14.0     E   36.8   41.5   36.9   33.9  30.301  0.00  0.00     0     0.00      0     0.0  0.00   0.0   0.164   0.000   67.9    49   48.0   66.5   9.09  .0753    0.000   211    5    100.0   10 
Email: AdamSPAM@StormwatchersRetreat.com (To send me email remove the word 'SPAM' from my email address.)